sensor_id;sensor_type;location;lat;lon;timestamp;pressure;altitude;pressure_sealevel;temperature;humidity
49473;BME280;67434;50.956;6.918;2023-02-28T00:02:14;102457.81;;;-0.14;65.75
49473;BME280;67434;50.956;6.918;2023-02-28T00:04:42;102458.09;;;-0.08;65.70
49473;BME280;67434;50.956;6.918;2023-02-28T00:07:08;102455.59;;;-0.19;66.36
49473;BME280;67434;50.956;6.918;2023-02-28T00:09:33;102464.81;;;-0.13;66.22
49473;BME280;67434;50.956;6.918;2023-02-28T00:11:58;102464.00;;;-0.23;66.95
49473;BME280;67434;50.956;6.918;2023-02-28T00:14:24;102461.09;;;-0.30;67.07
49473;BME280;67434;50.956;6.918;2023-02-28T00:16:49;102461.50;;;-0.25;67.37
49473;BME280;67434;50.956;6.918;2023-02-28T00:19:14;102464.03;;;-0.33;67.23
49473;BME280;67434;50.956;6.918;2023-02-28T00:21:40;102462.66;;;-0.37;67.93
49473;BME280;67434;50.956;6.918;2023-02-28T00:24:06;102465.44;;;-0.29;67.87
49473;BME280;67434;50.956;6.918;2023-02-28T00:26:32;102459.72;;;-0.34;67.78
49473;BME280;67434;50.956;6.918;2023-02-28T00:28:57;102461.25;;;-0.41;68.02
49473;BME280;67434;50.956;6.918;2023-02-28T00:31:22;102459.03;;;-0.36;67.41
49473;BME280;67434;50.956;6.918;2023-02-28T00:33:48;102458.88;;;-0.35;67.40
49473;BME280;67434;50.956;6.918;2023-02-28T00:36:13;102470.47;;;-0.45;67.52
49473;BME280;67434;50.956;6.918;2023-02-28T00:38:39;102469.50;;;-0.44;67.36
49473;BME280;67434;50.956;6.918;2023-02-28T00:41:05;102466.25;;;-0.38;67.01
49473;BME280;67434;50.956;6.918;2023-02-28T00:43:36;102461.69;;;-0.36;66.86
49473;BME280;67434;50.956;6.918;2023-02-28T00:46:02;102462.09;;;-0.31;66.19
49473;BME280;67434;50.956;6.918;2023-02-28T00:48:46;102461.09;;;-0.30;66.62
49473;BME280;67434;50.956;6.918;2023-02-28T00:51:12;102468.22;;;-0.30;66.60
49473;BME280;67434;50.956;6.918;2023-02-28T00:53:37;102458.16;;;-0.27;66.31
49473;BME280;67434;50.956;6.918;2023-02-28T00:56:03;102465.16;;;-0.36;66.69
49473;BME280;67434;50.956;6.918;2023-02-28T00:58:28;102453.97;;;-0.39;66.74
49473;BME280;67434;50.956;6.918;2023-02-28T01:00:54;102463.59;;;-0.38;66.62
49473;BME280;67434;50.956;6.918;2023-02-28T01:03:20;102456.50;;;-0.47;66.91
49473;BME280;67434;50.956;6.918;2023-02-28T01:05:46;102465.31;;;-0.56;67.96
49473;BME280;67434;50.956;6.918;2023-02-28T01:08:12;102472.88;;;-0.52;67.84
49473;BME280;67434;50.956;6.918;2023-02-28T01:10:39;102469.94;;;-0.58;67.87
49473;BME280;67434;50.956;6.918;2023-02-28T01:13:04;102455.41;;;-0.54;68.17
49473;BME280;67434;50.956;6.918;2023-02-28T01:15:30;102471.34;;;-0.54;68.31
49473;BME280;67434;50.956;6.918;2023-02-28T01:17:57;102467.00;;;-0.55;68.13
49473;BME280;67434;50.956;6.918;2023-02-28T01:20:22;102468.53;;;-0.53;68.87
49473;BME280;67434;50.956;6.918;2023-02-28T01:22:47;102461.84;;;-0.67;68.62
49473;BME280;67434;50.956;6.918;2023-02-28T01:25:13;102469.94;;;-0.58;68.87
49473;BME280;67434;50.956;6.918;2023-02-28T01:27:38;102467.03;;;-0.65;68.68
49473;BME280;67434;50.956;6.918;2023-02-28T01:30:06;102469.66;;;-0.55;68.51
49473;BME280;67434;50.956;6.918;2023-02-28T01:32:31;102466.03;;;-0.54;68.04
49473;BME280;67434;50.956;6.918;2023-02-28T01:34:57;102467.69;;;-0.53;68.47
49473;BME280;67434;50.956;6.918;2023-02-28T01:37:22;102464.47;;;-0.47;67.56
49473;BME280;67434;50.956;6.918;2023-02-28T01:39:48;102457.34;;;-0.47;67.42
49473;BME280;67434;50.956;6.918;2023-02-28T01:42:13;102460.13;;;-0.48;67.87
49473;BME280;67434;50.956;6.918;2023-02-28T01:47:28;102464.78;;;-0.60;67.57
49473;BME280;67434;50.956;6.918;2023-02-28T01:49:55;102455.97;;;-0.60;67.32
49473;BME280;67434;50.956;6.918;2023-02-28T01:52:21;102457.78;;;-0.61;67.40
49473;BME280;67434;50.956;6.918;2023-02-28T01:54:52;102452.91;;;-0.66;67.50
49473;BME280;67434;50.956;6.918;2023-02-28T01:57:24;102452.78;;;-0.74;67.74
49473;BME280;67434;50.956;6.918;2023-02-28T02:02:24;102449.56;;;-0.68;67.36
49473;BME280;67434;50.956;6.918;2023-02-28T02:04:57;102453.72;;;-0.75;68.09
49473;BME280;67434;50.956;6.918;2023-02-28T02:07:24;102447.31;;;-0.63;67.49
49473;BME280;67434;50.956;6.918;2023-02-28T02:10:01;102449.25;;;-0.65;67.13
49473;BME280;67434;50.956;6.918;2023-02-28T02:12:31;102449.00;;;-0.71;67.54
49473;BME280;67434;50.956;6.918;2023-02-28T02:17:34;102436.41;;;-0.59;66.90
49473;BME280;67434;50.956;6.918;2023-02-28T02:20:16;102439.75;;;-0.67;66.90
49473;BME280;67434;50.956;6.918;2023-02-28T02:23:29;102430.38;;;-0.61;66.82
49473;BME280;67434;50.956;6.918;2023-02-28T02:28:54;102428.03;;;-0.65;66.24
49473;BME280;67434;50.956;6.918;2023-02-28T02:37:27;102429.16;;;-0.67;65.31
49473;BME280;67434;50.956;6.918;2023-02-28T02:40:35;102423.28;;;-0.71;65.41
49473;BME280;67434;50.956;6.918;2023-02-28T02:43:08;102424.66;;;-0.76;65.60
49473;BME280;67434;50.956;6.918;2023-02-28T02:45:40;102426.34;;;-0.85;65.54
49473;BME280;67434;50.956;6.918;2023-02-28T02:48:10;102432.47;;;-0.75;64.61
49473;BME280;67434;50.956;6.918;2023-02-28T02:51:03;102426.63;;;-0.78;64.36
49473;BME280;67434;50.956;6.918;2023-02-28T02:53:33;102435.28;;;-0.86;64.51
49473;BME280;67434;50.956;6.918;2023-02-28T02:56:01;102424.97;;;-0.89;63.62
49473;BME280;67434;50.956;6.918;2023-02-28T02:58:32;102430.53;;;-0.92;64.39
49473;BME280;67434;50.956;6.918;2023-02-28T03:01:01;102430.84;;;-1.05;65.10
49473;BME280;67434;50.956;6.918;2023-02-28T03:03:28;102430.69;;;-1.03;65.36
49473;BME280;67434;50.956;6.918;2023-02-28T03:06:00;102430.28;;;-1.08;66.06
49473;BME280;67434;50.956;6.918;2023-02-28T03:08:44;102426.09;;;-1.01;65.84
49473;BME280;67434;50.956;6.918;2023-02-28T03:11:13;102430.81;;;-1.14;66.19
49473;BME280;67434;50.956;6.918;2023-02-28T03:13:47;102425.25;;;-1.02;65.08
49473;BME280;67434;50.956;6.918;2023-02-28T03:16:31;102418.50;;;-1.15;65.02
49473;BME280;67434;50.956;6.918;2023-02-28T03:24:55;102413.06;;;-1.14;64.11
49473;BME280;67434;50.956;6.918;2023-02-28T03:27:29;102419.63;;;-1.28;64.84
49473;BME280;67434;50.956;6.918;2023-02-28T03:30:09;102418.38;;;-1.23;64.17
49473;BME280;67434;50.956;6.918;2023-02-28T03:32:40;102414.63;;;-1.11;63.12
49473;BME280;67434;50.956;6.918;2023-02-28T03:35:19;102414.34;;;-1.08;63.10
49473;BME280;67434;50.956;6.918;2023-02-28T03:37:52;102420.22;;;-1.05;63.09
49473;BME280;67434;50.956;6.918;2023-02-28T03:40:21;102410.44;;;-1.04;62.46
49473;BME280;67434;50.956;6.918;2023-02-28T03:42:54;102417.44;;;-1.03;62.20
49473;BME280;67434;50.956;6.918;2023-02-28T03:45:24;102417.13;;;-0.90;61.72
49473;BME280;67434;50.956;6.918;2023-02-28T03:50:41;102420.91;;;-0.93;62.17
49473;BME280;67434;50.956;6.918;2023-02-28T03:53:39;102425.66;;;-0.97;62.70
49473;BME280;67434;50.956;6.918;2023-02-28T03:56:11;102415.34;;;-1.09;62.87
49473;BME280;67434;50.956;6.918;2023-02-28T03:58:44;102419.78;;;-1.00;62.49
49473;BME280;67434;50.956;6.918;2023-02-28T04:01:17;102422.16;;;-0.97;63.00
49473;BME280;67434;50.956;6.918;2023-02-28T04:03:44;102416.31;;;-1.01;63.08
49473;BME280;67434;50.956;6.918;2023-02-28T04:06:15;102420.34;;;-1.06;63.88
49473;BME280;67434;50.956;6.918;2023-02-28T04:08:41;102429.41;;;-1.18;64.40
49473;BME280;67434;50.956;6.918;2023-02-28T04:11:20;102429.53;;;-1.20;65.06
49473;BME280;67434;50.956;6.918;2023-02-28T04:13:46;102429.97;;;-1.24;65.71
49473;BME280;67434;50.956;6.918;2023-02-28T04:16:11;102422.41;;;-1.39;66.22
49473;BME280;67434;50.956;6.918;2023-02-28T04:18:51;102423.81;;;-1.44;66.90
49473;BME280;67434;50.956;6.918;2023-02-28T04:21:17;102439.53;;;-1.52;67.44
49473;BME280;67434;50.956;6.918;2023-02-28T04:23:46;102434.81;;;-1.49;67.61
49473;BME280;67434;50.956;6.918;2023-02-28T04:26:11;102429.41;;;-1.38;67.59
49473;BME280;67434;50.956;6.918;2023-02-28T04:28:37;102430.94;;;-1.35;67.38
49473;BME280;67434;50.956;6.918;2023-02-28T04:31:04;102432.47;;;-1.42;68.12
49473;BME280;67434;50.956;6.918;2023-02-28T04:33:31;102434.69;;;-1.38;67.52
49473;BME280;67434;50.956;6.918;2023-02-28T04:36:05;102431.06;;;-1.37;68.13
49473;BME280;67434;50.956;6.918;2023-02-28T04:38:36;102435.97;;;-1.42;68.43
49473;BME280;67434;50.956;6.918;2023-02-28T04:41:05;102445.03;;;-1.44;68.40
49473;BME280;67434;50.956;6.918;2023-02-28T04:43:50;102442.81;;;-1.39;68.13
49473;BME280;67434;50.956;6.918;2023-02-28T04:46:15;102431.91;;;-1.46;68.72
49473;BME280;67434;50.956;6.918;2023-02-28T04:48:41;102443.06;;;-1.42;68.15
49473;BME280;67434;50.956;6.918;2023-02-28T04:51:09;102448.94;;;-1.48;68.95
49473;BME280;67434;50.956;6.918;2023-02-28T04:53:50;102453.69;;;-1.33;68.45
49473;BME280;67434;50.956;6.918;2023-02-28T04:56:17;102453.69;;;-1.42;68.94
49473;BME280;67434;50.956;6.918;2023-02-28T04:58:43;102446.84;;;-1.45;68.62
49473;BME280;67434;50.956;6.918;2023-02-28T05:01:25;102448.06;;;-1.49;68.62
49473;BME280;67434;50.956;6.918;2023-02-28T05:03:52;102446.28;;;-1.48;68.34
49473;BME280;67434;50.956;6.918;2023-02-28T05:06:18;102449.44;;;-1.64;68.58
49473;BME280;67434;50.956;6.918;2023-02-28T05:08:45;102452.78;;;-1.62;68.99
49473;BME280;67434;50.956;6.918;2023-02-28T05:11:20;102451.81;;;-1.61;68.46
49473;BME280;67434;50.956;6.918;2023-02-28T05:13:46;102451.81;;;-1.61;68.77
49473;BME280;67434;50.956;6.918;2023-02-28T05:16:11;102455.16;;;-1.59;68.23
49473;BME280;67434;50.956;6.918;2023-02-28T05:18:37;102458.50;;;-1.67;68.53
49473;BME280;67434;50.956;6.918;2023-02-28T05:21:03;102460.72;;;-1.62;68.09
49473;BME280;67434;50.956;6.918;2023-02-28T05:23:28;102464.34;;;-1.63;68.21
49473;BME280;67434;50.956;6.918;2023-02-28T05:25:54;102464.34;;;-1.63;67.75
49473;BME280;67434;50.956;6.918;2023-02-28T05:28:20;102457.38;;;-1.64;68.03
49473;BME280;67434;50.956;6.918;2023-02-28T05:30:46;102457.50;;;-1.75;68.23
49473;BME280;67434;50.956;6.918;2023-02-28T05:33:12;102448.56;;;-1.74;68.53
49473;BME280;67434;50.956;6.918;2023-02-28T05:35:39;102450.25;;;-1.73;68.11
49473;BME280;67434;50.956;6.918;2023-02-28T05:38:04;102458.19;;;-1.73;68.07
49473;BME280;67434;50.956;6.918;2023-02-28T05:40:48;102456.53;;;-1.74;68.06
49473;BME280;67434;50.956;6.918;2023-02-28T05:43:14;102459.88;;;-1.72;68.00
49473;BME280;67434;50.956;6.918;2023-02-28T05:45:40;102460.44;;;-1.69;67.44
49473;BME280;67434;50.956;6.918;2023-02-28T05:48:05;102460.00;;;-1.74;67.10
49473;BME280;67434;50.956;6.918;2023-02-28T05:50:30;102461.13;;;-1.67;67.32
49473;BME280;67434;50.956;6.918;2023-02-28T05:52:56;102464.47;;;-1.74;66.87
49473;BME280;67434;50.956;6.918;2023-02-28T05:55:21;102468.94;;;-1.75;67.20
49473;BME280;67434;50.956;6.918;2023-02-28T05:57:46;102470.34;;;-1.71;67.20
49473;BME280;67434;50.956;6.918;2023-02-28T06:00:13;102472.72;;;-1.68;66.82
49473;BME280;67434;50.956;6.918;2023-02-28T06:02:40;102462.81;;;-1.66;66.57
49473;BME280;67434;50.956;6.918;2023-02-28T06:05:10;102460.72;;;-1.62;66.20
49473;BME280;67434;50.956;6.918;2023-02-28T06:07:38;102463.81;;;-1.57;65.28
49473;BME280;67434;50.956;6.918;2023-02-28T06:10:03;102453.06;;;-1.55;66.09
49473;BME280;67434;50.956;6.918;2023-02-28T06:12:28;102460.63;;;-1.51;65.71
49473;BME280;67434;50.956;6.918;2023-02-28T06:14:54;102460.63;;;-1.51;66.05
49473;BME280;67434;50.956;6.918;2023-02-28T06:17:19;102467.59;;;-1.50;65.44
49473;BME280;67434;50.956;6.918;2023-02-28T06:19:44;102458.44;;;-1.36;65.33
49473;BME280;67434;50.956;6.918;2023-02-28T06:22:10;102468.09;;;-1.26;64.19
49473;BME280;67434;50.956;6.918;2023-02-28T06:24:35;102462.94;;;-1.17;62.76
49473;BME280;67434;50.956;6.918;2023-02-28T06:27:00;102470.31;;;-1.21;62.78
49473;BME280;67434;50.956;6.918;2023-02-28T06:29:39;102475.78;;;-1.22;62.43
49473;BME280;67434;50.956;6.918;2023-02-28T06:32:05;102474.53;;;-1.18;62.08
49473;BME280;67434;50.956;6.918;2023-02-28T06:34:31;102486.81;;;-1.17;62.36
49473;BME280;67434;50.956;6.918;2023-02-28T06:36:56;102485.00;;;-1.17;61.91
49473;BME280;67434;50.956;6.918;2023-02-28T06:39:22;102479.81;;;-1.18;62.12
49473;BME280;67434;50.956;6.918;2023-02-28T06:41:47;102484.16;;;-1.17;61.25
49473;BME280;67434;50.956;6.918;2023-02-28T06:44:17;102490.88;;;-1.13;61.98
49473;BME280;67434;50.956;6.918;2023-02-28T06:46:45;102497.59;;;-1.09;61.54
49473;BME280;67434;50.956;6.918;2023-02-28T06:49:11;102497.47;;;-1.08;61.59
49473;BME280;67434;50.956;6.918;2023-02-28T06:51:39;102506.78;;;-1.13;62.47
49473;BME280;67434;50.956;6.918;2023-02-28T06:54:05;102511.13;;;-1.12;62.32
49473;BME280;67434;50.956;6.918;2023-02-28T06:56:34;102499.28;;;-1.08;61.83
49473;BME280;67434;50.956;6.918;2023-02-28T06:59:00;102511.84;;;-1.01;61.76
49473;BME280;67434;50.956;6.918;2023-02-28T07:01:44;102520.66;;;-1.00;61.47
49473;BME280;67434;50.956;6.918;2023-02-28T07:04:10;102521.91;;;-0.95;61.35
49473;BME280;67434;50.956;6.918;2023-02-28T07:06:35;102517.72;;;-0.97;62.02
49473;BME280;67434;50.956;6.918;2023-02-28T07:09:01;102523.72;;;-0.95;62.16
49473;BME280;67434;50.956;6.918;2023-02-28T07:11:27;102516.19;;;-0.90;61.72
49473;BME280;67434;50.956;6.918;2023-02-28T07:13:54;102522.06;;;-0.86;60.87
49473;BME280;67434;50.956;6.918;2023-02-28T07:16:21;102520.81;;;-0.82;60.19
49473;BME280;67434;50.956;6.918;2023-02-28T07:18:47;102526.16;;;-0.73;59.93
49473;BME280;67434;50.956;6.918;2023-02-28T07:21:13;102518.88;;;-0.71;59.00
49473;BME280;67434;50.956;6.918;2023-02-28T07:23:50;102511.47;;;-0.67;60.02
49473;BME280;67434;50.956;6.918;2023-02-28T07:26:18;102518.03;;;-0.61;59.07
49473;BME280;67434;50.956;6.918;2023-02-28T07:28:45;102520.13;;;-0.55;58.62
49473;BME280;67434;50.956;6.918;2023-02-28T07:31:11;102516.50;;;-0.54;59.12
49473;BME280;67434;50.956;6.918;2023-02-28T07:33:37;102521.94;;;-0.46;58.28
49473;BME280;67434;50.956;6.918;2023-02-28T07:36:04;102529.09;;;-0.37;57.57
49473;BME280;67434;50.956;6.918;2023-02-28T07:38:30;102526.97;;;-0.34;57.02
49473;BME280;67434;50.956;6.918;2023-02-28T07:40:56;102527.53;;;-0.30;57.44
49473;BME280;67434;50.956;6.918;2023-02-28T07:43:21;102528.91;;;-0.26;56.98
49473;BME280;67434;50.956;6.918;2023-02-28T07:45:47;102524.41;;;-0.16;56.05
49473;BME280;67434;50.956;6.918;2023-02-28T07:48:12;102522.47;;;-0.14;55.70
49473;BME280;67434;50.956;6.918;2023-02-28T07:50:37;102515.59;;;-0.07;55.63
49473;BME280;67434;50.956;6.918;2023-02-28T07:53:03;102517.81;;;-0.02;56.16
49473;BME280;67434;50.956;6.918;2023-02-28T07:55:29;102523.56;;;0.03;55.18
49473;BME280;67434;50.956;6.918;2023-02-28T07:57:56;102515.69;;;0.11;54.53
49473;BME280;67434;50.956;6.918;2023-02-28T08:00:41;102522.94;;;0.19;53.92
49473;BME280;67434;50.956;6.918;2023-02-28T08:03:07;102529.34;;;0.26;53.29
49473;BME280;67434;50.956;6.918;2023-02-28T08:05:38;102522.75;;;0.30;54.06
49473;BME280;67434;50.956;6.918;2023-02-28T08:08:03;102523.56;;;0.40;53.06
49473;BME280;67434;50.956;6.918;2023-02-28T08:10:29;102521.84;;;0.49;53.11
49473;BME280;67434;50.956;6.918;2023-02-28T08:12:54;102524.38;;;0.50;52.82
49473;BME280;67434;50.956;6.918;2023-02-28T08:15:19;102526.13;;;0.59;53.13
49473;BME280;67434;50.956;6.918;2023-02-28T08:17:45;102525.53;;;0.66;52.31
49473;BME280;67434;50.956;6.918;2023-02-28T08:20:10;102528.44;;;0.72;51.30
49473;BME280;67434;50.956;6.918;2023-02-28T08:22:36;102533.50;;;0.75;51.73
49473;BME280;67434;50.956;6.918;2023-02-28T08:25:03;102527.72;;;0.80;51.44
49473;BME280;67434;50.956;6.918;2023-02-28T08:27:28;102529.50;;;0.89;51.43
49473;BME280;67434;50.956;6.918;2023-02-28T08:29:53;102530.88;;;0.93;50.59
49473;BME280;67434;50.956;6.918;2023-02-28T08:32:37;102528.28;;;1.01;49.67
49473;BME280;67434;50.956;6.918;2023-02-28T08:35:04;102530.88;;;1.11;50.15
49473;BME280;67434;50.956;6.918;2023-02-28T08:37:30;102525.50;;;1.20;50.38
49473;BME280;67434;50.956;6.918;2023-02-28T08:39:55;102522.06;;;1.28;47.67
49473;BME280;67434;50.956;6.918;2023-02-28T08:42:21;102535.78;;;1.33;47.20
49473;BME280;67434;50.956;6.918;2023-02-28T08:44:46;102536.31;;;1.37;46.71
49473;BME280;67434;50.956;6.918;2023-02-28T08:47:12;102536.84;;;1.40;46.44
49473;BME280;67434;50.956;6.918;2023-02-28T08:49:37;102541.53;;;1.46;46.40
49473;BME280;67434;50.956;6.918;2023-02-28T08:52:03;102536.63;;;1.51;45.99
49473;BME280;67434;50.956;6.918;2023-02-28T08:54:29;102539.50;;;1.58;45.48
49473;BME280;67434;50.956;6.918;2023-02-28T08:56:56;102535.91;;;1.67;45.18
49473;BME280;67434;50.956;6.918;2023-02-28T08:59:22;102531.78;;;1.73;45.49
49473;BME280;67434;50.956;6.918;2023-02-28T09:01:48;102539.31;;;1.77;45.42
49473;BME280;67434;50.956;6.918;2023-02-28T09:04:13;102535.03;;;1.84;45.19
49473;BME280;67434;50.956;6.918;2023-02-28T09:06:38;102530.78;;;1.92;43.47
49473;BME280;67434;50.956;6.918;2023-02-28T09:09:04;102529.94;;;1.91;43.62
49473;BME280;67434;50.956;6.918;2023-02-28T09:11:31;102534.13;;;1.94;43.21
49473;BME280;67434;50.956;6.918;2023-02-28T09:13:58;102532.50;;;2.01;43.56
49473;BME280;67434;50.956;6.918;2023-02-28T09:16:25;102522.66;;;2.01;42.87
49473;BME280;67434;50.956;6.918;2023-02-28T09:18:50;102528.38;;;2.06;42.93
49473;BME280;67434;50.956;6.918;2023-02-28T09:21:17;102530.19;;;2.06;43.28
49473;BME280;67434;50.956;6.918;2023-02-28T09:23:44;102524.38;;;2.10;43.47
49473;BME280;67434;50.956;6.918;2023-02-28T09:26:18;102516.59;;;2.17;42.73
49473;BME280;67434;50.956;6.918;2023-02-28T09:28:44;102518.25;;;2.18;42.49
49473;BME280;67434;50.956;6.918;2023-02-28T09:31:16;102516.66;;;2.25;42.04
49473;BME280;67434;50.956;6.918;2023-02-28T09:33:42;102518.16;;;2.28;41.42
49473;BME280;67434;50.956;6.918;2023-02-28T09:36:07;102516.81;;;2.24;40.53
49473;BME280;67434;50.956;6.918;2023-02-28T09:38:33;102510.78;;;2.22;41.22
49473;BME280;67434;50.956;6.918;2023-02-28T09:41:01;102515.66;;;2.26;41.09
49473;BME280;67434;50.956;6.918;2023-02-28T09:43:35;102513.34;;;2.31;40.73
49473;BME280;67434;50.956;6.918;2023-02-28T09:48:35;102517.88;;;2.39;40.92
49473;BME280;67434;50.956;6.918;2023-02-28T09:51:05;102514.25;;;2.48;41.55
49473;BME280;67434;50.956;6.918;2023-02-28T09:53:36;102514.09;;;2.49;41.25
49473;BME280;67434;50.956;6.918;2023-02-28T09:56:09;102522.25;;;2.48;40.83
49473;BME280;67434;50.956;6.918;2023-02-28T09:59:25;102513.06;;;2.42;41.13
49473;BME280;67434;50.956;6.918;2023-02-28T10:04:40;102519.16;;;2.61;41.53
49473;BME280;67434;50.956;6.918;2023-02-28T10:07:33;102513.34;;;2.65;40.66
49473;BME280;67434;50.956;6.918;2023-02-28T10:10:06;102500.84;;;2.74;41.63
49473;BME280;67434;50.956;6.918;2023-02-28T10:12:43;102511.56;;;2.82;41.83
49473;BME280;67434;50.956;6.918;2023-02-28T10:15:14;102507.38;;;2.88;40.47
49473;BME280;67434;50.956;6.918;2023-02-28T10:17:43;102514.25;;;2.90;40.31
49473;BME280;67434;50.956;6.918;2023-02-28T10:20:16;102511.91;;;2.87;40.31
49473;BME280;67434;50.956;6.918;2023-02-28T10:22:58;102510.72;;;2.90;40.51
49473;BME280;67434;50.956;6.918;2023-02-28T10:25:28;102508.25;;;2.96;40.43
49473;BME280;67434;50.956;6.918;2023-02-28T10:27:59;102508.56;;;2.93;40.34
49473;BME280;67434;50.956;6.918;2023-02-28T10:30:26;102509.41;;;2.94;40.08
49473;BME280;67434;50.956;6.918;2023-02-28T10:32:52;102502.91;;;2.96;40.33
49473;BME280;67434;50.956;6.918;2023-02-28T10:35:23;102499.75;;;3.01;40.63
49473;BME280;67434;50.956;6.918;2023-02-28T10:37:52;102500.44;;;3.11;40.75
49473;BME280;67434;50.956;6.918;2023-02-28T10:45:52;102494.78;;;3.22;40.05
49473;BME280;67434;50.956;6.918;2023-02-28T10:50:51;102500.28;;;3.21;39.81
49473;BME280;67434;50.956;6.918;2023-02-28T10:56:02;102487.13;;;3.35;40.40
49473;BME280;67434;50.956;6.918;2023-02-28T11:01:26;102482.75;;;3.34;40.25
49473;BME280;67434;50.956;6.918;2023-02-28T11:03:59;102475.25;;;3.38;40.57
49473;BME280;67434;50.956;6.918;2023-02-28T11:06:32;102474.25;;;3.47;40.26
49473;BME280;67434;50.956;6.918;2023-02-28T11:09:04;102476.56;;;3.58;39.89
49473;BME280;67434;50.956;6.918;2023-02-28T11:11:43;102463.84;;;3.68;39.38
49473;BME280;67434;50.956;6.918;2023-02-28T11:14:20;102459.88;;;3.72;40.26
49473;BME280;67434;50.956;6.918;2023-02-28T11:16:47;102460.38;;;3.76;39.14
49473;BME280;67434;50.956;6.918;2023-02-28T11:19:25;102460.50;;;3.83;38.12
49473;BME280;67434;50.956;6.918;2023-02-28T11:24:49;102448.72;;;4.08;39.02
49473;BME280;67434;50.956;6.918;2023-02-28T11:29:58;102451.22;;;4.18;39.38
49473;BME280;67434;50.956;6.918;2023-02-28T11:32:25;102450.09;;;3.96;39.71
49473;BME280;67434;50.956;6.918;2023-02-28T11:35:02;102447.94;;;3.91;41.03
49473;BME280;67434;50.956;6.918;2023-02-28T11:37:47;102437.03;;;4.01;40.13
49473;BME280;67434;50.956;6.918;2023-02-28T11:40:20;102447.75;;;4.09;39.85
49473;BME280;67434;50.956;6.918;2023-02-28T11:43:09;102451.09;;;4.03;40.03
49473;BME280;67434;50.956;6.918;2023-02-28T11:46:42;102448.13;;;3.90;40.34
49473;BME280;67434;50.956;6.918;2023-02-28T11:48:54;102460.50;;;3.83;40.31
49473;BME280;67434;50.956;6.918;2023-02-28T11:51:50;102462.50;;;3.89;40.61
49473;BME280;67434;50.956;6.918;2023-02-28T11:57:24;102449.34;;;4.26;39.75
49473;BME280;67434;50.956;6.918;2023-02-28T12:06:33;102439.97;;;4.61;40.15
49473;BME280;67434;50.956;6.918;2023-02-28T12:09:19;102443.63;;;4.68;39.43
49473;BME280;67434;50.956;6.918;2023-02-28T12:11:53;102437.75;;;4.96;38.66
49473;BME280;67434;50.956;6.918;2023-02-28T12:17:35;102439.75;;;4.71;38.70
49473;BME280;67434;50.956;6.918;2023-02-28T12:20:32;102426.78;;;4.60;38.66
49473;BME280;67434;50.956;6.918;2023-02-28T12:26:02;102437.00;;;4.87;37.57
49473;BME280;67434;50.956;6.918;2023-02-28T12:28:38;102424.97;;;4.83;37.81
49473;BME280;67434;50.956;6.918;2023-02-28T12:33:47;102424.16;;;4.52;37.79
49473;BME280;67434;50.956;6.918;2023-02-28T12:36:16;102418.16;;;4.42;38.16
49473;BME280;67434;50.956;6.918;2023-02-28T12:38:48;102416.78;;;4.46;38.61
49473;BME280;67434;50.956;6.918;2023-02-28T12:41:20;102414.78;;;4.48;38.45
49473;BME280;67434;50.956;6.918;2023-02-28T12:44:17;102413.81;;;4.40;39.05
49473;BME280;67434;50.956;6.918;2023-02-28T12:46:55;102398.75;;;4.39;38.28
49473;BME280;67434;50.956;6.918;2023-02-28T12:49:54;102414.81;;;4.39;38.33
49473;BME280;67434;50.956;6.918;2023-02-28T12:52:30;102413.84;;;4.32;38.30
49473;BME280;67434;50.956;6.918;2023-02-28T12:55:11;102401.25;;;4.41;39.61
49473;BME280;67434;50.956;6.918;2023-02-28T12:57:59;102393.69;;;4.53;38.58
49473;BME280;67434;50.956;6.918;2023-02-28T13:00:34;102395.00;;;4.57;38.84
49473;BME280;67434;50.956;6.918;2023-02-28T13:06:05;102382.56;;;4.87;38.42
49473;BME280;67434;50.956;6.918;2023-02-28T13:09:11;102383.75;;;4.84;38.16
49473;BME280;67434;50.956;6.918;2023-02-28T13:11:46;102378.91;;;4.80;38.78
49473;BME280;67434;50.956;6.918;2023-02-28T13:14:51;102377.78;;;4.74;38.97
49473;BME280;67434;50.956;6.918;2023-02-28T13:17:11;102374.28;;;4.74;38.42
49473;BME280;67434;50.956;6.918;2023-02-28T13:20:14;102369.38;;;4.77;39.15
49473;BME280;67434;50.956;6.918;2023-02-28T13:22:50;102374.38;;;4.80;39.19
49473;BME280;67434;50.956;6.918;2023-02-28T13:27:47;102375.00;;;4.90;39.25
49473;BME280;67434;50.956;6.918;2023-02-28T13:33:31;102369.56;;;4.98;38.77
49473;BME280;67434;50.956;6.918;2023-02-28T13:38:39;102369.72;;;5.20;38.51
49473;BME280;67434;50.956;6.918;2023-02-28T13:44:21;102354.88;;;5.32;37.88
49473;BME280;67434;50.956;6.918;2023-02-28T13:49:25;102355.72;;;5.47;37.92
49473;BME280;67434;50.956;6.918;2023-02-28T13:58:03;102355.53;;;5.34;36.43
49473;BME280;67434;50.956;6.918;2023-02-28T14:06:18;102348.28;;;5.20;37.48
49473;BME280;67434;50.956;6.918;2023-02-28T14:08:54;102346.09;;;5.23;38.04
49473;BME280;67434;50.956;6.918;2023-02-28T14:11:40;102342.66;;;5.29;37.65
49473;BME280;67434;50.956;6.918;2023-02-28T14:14:08;102340.16;;;5.28;37.92
49473;BME280;67434;50.956;6.918;2023-02-28T14:19:15;102330.47;;;5.27;38.09
49473;BME280;67434;50.956;6.918;2023-02-28T14:22:25;102330.38;;;5.20;38.07
49473;BME280;67434;50.956;6.918;2023-02-28T14:25:22;102321.47;;;5.20;38.50
49473;BME280;67434;50.956;6.918;2023-02-28T14:28:27;102319.91;;;5.25;38.22
49473;BME280;67434;50.956;6.918;2023-02-28T14:31:09;102332.03;;;5.36;38.36
49473;BME280;67434;50.956;6.918;2023-02-28T14:33:53;102324.19;;;5.34;38.46
49473;BME280;67434;50.956;6.918;2023-02-28T14:36:36;102329.06;;;5.31;38.17
49473;BME280;67434;50.956;6.918;2023-02-28T14:39:07;102326.59;;;5.29;38.77
49473;BME280;67434;50.956;6.918;2023-02-28T14:41:48;102324.19;;;5.34;38.41
49473;BME280;67434;50.956;6.918;2023-02-28T14:44:27;102324.00;;;5.36;38.69
49473;BME280;67434;50.956;6.918;2023-02-28T14:47:01;102322.97;;;5.37;38.19
49473;BME280;67434;50.956;6.918;2023-02-28T14:49:42;102312.91;;;5.39;38.58
49473;BME280;67434;50.956;6.918;2023-02-28T14:52:28;102333.81;;;5.44;37.50
49473;BME280;67434;50.956;6.918;2023-02-28T14:55:18;102321.69;;;5.33;37.97
49473;BME280;67434;50.956;6.918;2023-02-28T14:57:54;102327.03;;;5.33;39.21